createdAt,value
2019-04-29T00:02:34.530Z,49.40
2019-04-29T00:05:04.579Z,49.95
2019-04-29T00:07:33.683Z,48.90
2019-04-29T00:10:03.747Z,50.05
2019-04-29T00:12:32.856Z,50.33
2019-04-29T00:15:09.601Z,48.92
2019-04-29T00:17:43.082Z,49.03
2019-04-29T00:20:13.826Z,49.50
2019-04-29T00:22:42.960Z,51.02
2019-04-29T00:25:12.063Z,51.40
2019-04-29T00:27:41.241Z,51.00
2019-04-29T00:30:12.173Z,51.85
2019-04-29T00:32:41.285Z,50.83
2019-04-29T00:35:10.394Z,53.15
2019-04-29T00:37:49.998Z,51.05
2019-04-29T00:40:35.876Z,51.88
2019-04-29T00:43:06.711Z,50.88
2019-04-29T00:45:36.074Z,51.20
2019-04-29T00:48:05.251Z,50.00
2019-04-29T00:50:34.380Z,50.63
2019-04-29T00:53:03.555Z,51.70
2019-04-29T00:55:34.032Z,51.88
2019-04-29T00:58:03.151Z,51.00
2019-04-29T01:00:33.910Z,51.60
2019-04-29T01:03:03.012Z,52.73
2019-04-29T01:05:32.206Z,51.23
2019-04-29T01:08:01.315Z,53.35
2019-04-29T01:10:30.424Z,52.45
2019-04-29T01:12:59.548Z,51.30
2019-04-29T01:15:28.655Z,51.77
2019-04-29T01:17:57.764Z,51.10
2019-04-29T01:20:26.895Z,51.13
2019-04-29T01:22:56.009Z,51.90
2019-04-29T01:25:25.123Z,50.88
2019-04-29T01:28:07.811Z,51.88
2019-04-29T01:30:55.067Z,51.98
2019-04-29T01:33:24.193Z,51.13
2019-04-29T01:35:54.937Z,52.13
2019-04-29T01:38:24.053Z,51.33
2019-04-29T01:40:54.827Z,49.93
2019-04-29T01:43:25.578Z,50.45
2019-04-29T01:45:54.687Z,49.63
2019-04-29T01:48:23.812Z,49.98
2019-04-29T01:50:52.924Z,50.33
2019-04-29T01:53:22.028Z,49.73
2019-04-29T01:55:51.156Z,36.38
2019-04-29T01:58:20.264Z,49.88
2019-04-29T02:00:49.373Z,50.25
2019-04-29T02:03:18.498Z,49.77
2019-04-29T02:05:47.608Z,50.30
2019-04-29T02:08:16.716Z,50.05
2019-04-29T02:10:45.836Z,49.48
2019-04-29T02:13:14.944Z,51.45
2019-04-29T02:15:44.061Z,49.27
2019-04-29T02:18:13.193Z,50.33
2019-04-29T02:20:42.295Z,50.12
2019-04-29T02:23:15.993Z,49.70
2019-04-29T02:25:49.207Z,49.67
2019-04-29T02:28:18.323Z,49.75
2019-04-29T02:30:49.373Z,50.03
2019-04-29T02:33:18.462Z,50.83
2019-04-29T02:35:47.569Z,49.65
2019-04-29T02:38:24.252Z,49.42
2019-04-29T02:41:00.627Z,50.95
2019-04-29T02:43:33.838Z,49.60
2019-04-29T02:46:02.937Z,49.73
2019-04-29T02:48:34.609Z,49.42
2019-04-29T02:51:02.907Z,49.77
2019-04-29T02:53:32.008Z,49.23
2019-04-29T02:56:01.297Z,51.95
2019-04-29T02:58:32.228Z,50.65
2019-04-29T03:01:19.516Z,49.38
2019-04-29T03:04:05.372Z,50.33
2019-04-29T03:06:34.552Z,50.23
2019-04-29T03:09:04.370Z,49.23
2019-04-29T03:11:33.569Z,49.98
2019-04-29T03:14:02.753Z,50.00
2019-04-29T03:16:31.851Z,49.00
2019-04-29T03:19:05.385Z,49.18
2019-04-29T03:21:36.133Z,50.92
2019-04-29T03:24:05.323Z,49.85
2019-04-29T03:26:34.688Z,49.98
2019-04-29T03:29:05.996Z,49.93
2019-04-29T03:31:39.165Z,51.77
2019-04-29T03:34:05.965Z,51.48
2019-04-29T03:36:35.118Z,50.52
2019-04-29T03:39:05.150Z,50.43
2019-04-29T03:41:34.272Z,49.93
2019-04-29T03:44:03.388Z,50.52
2019-04-29T03:46:32.505Z,50.88
2019-04-29T03:49:01.640Z,50.75
2019-04-29T03:51:30.764Z,50.98
2019-04-29T03:53:59.878Z,50.95
2019-04-29T03:56:29.271Z,52.70
2019-04-29T03:58:58.381Z,50.65
2019-04-29T04:01:29.135Z,51.55
2019-04-29T04:04:12.032Z,50.52
2019-04-29T04:06:48.542Z,51.45
2019-04-29T04:09:22.014Z,54.58
2019-04-29T04:11:51.122Z,51.20
2019-04-29T04:14:20.248Z,51.42
2019-04-29T04:17:06.167Z,51.00
2019-04-29T04:19:35.349Z,51.30
2019-04-29T04:22:05.814Z,49.42
2019-04-29T04:24:34.950Z,51.13
2019-04-29T04:27:04.062Z,49.40
2019-04-29T04:29:33.168Z,50.48
2019-04-29T04:32:02.299Z,51.13
2019-04-29T04:34:31.415Z,51.88
2019-04-29T04:37:00.656Z,50.73
2019-04-29T04:39:31.410Z,51.80
2019-04-29T04:42:00.803Z,50.73
2019-04-29T04:44:48.294Z,51.63
2019-04-29T04:47:19.026Z,51.45
2019-04-29T04:49:48.367Z,51.88
2019-04-29T04:52:17.572Z,49.93
2019-04-29T04:54:48.345Z,52.78
2019-04-29T04:57:17.439Z,50.65
2019-04-29T04:59:46.567Z,52.00
2019-04-29T05:02:15.679Z,51.73
2019-04-29T05:04:44.796Z,51.48
2019-04-29T05:07:13.918Z,50.40
2019-04-29T05:09:43.065Z,52.00
2019-04-29T05:12:14.096Z,50.20
2019-04-29T05:14:43.062Z,50.45
2019-04-29T05:17:12.170Z,50.60
2019-04-29T05:19:41.281Z,51.40
2019-04-29T05:22:10.410Z,50.12
2019-04-29T05:24:39.518Z,51.88
2019-04-29T05:27:08.626Z,51.60
2019-04-29T05:29:37.751Z,51.02
2019-04-29T05:32:06.864Z,51.20
2019-04-29T05:34:41.825Z,51.70
2019-04-29T05:37:19.096Z,51.10
2019-04-29T05:39:48.238Z,51.45
2019-04-29T05:42:17.403Z,52.62
2019-04-29T05:44:54.011Z,52.80
2019-04-29T05:47:27.939Z,52.35
2019-04-29T05:50:07.415Z,53.08
2019-04-29T05:52:54.874Z,52.45
2019-04-29T05:55:23.996Z,53.25
2019-04-29T05:57:55.841Z,51.50
2019-04-29T06:00:25.573Z,52.40
2019-04-29T06:02:54.703Z,38.42
2019-04-29T06:05:23.821Z,52.17
2019-04-29T06:07:56.183Z,53.45
2019-04-29T06:10:24.733Z,51.90
2019-04-29T06:12:53.955Z,53.58
2019-04-29T06:15:23.085Z,54.35
2019-04-29T06:17:52.203Z,51.77
2019-04-29T06:20:22.869Z,53.33
2019-04-29T06:22:52.095Z,53.28
2019-04-29T06:25:21.229Z,52.48
2019-04-29T06:27:50.786Z,52.90
2019-04-29T06:30:19.964Z,55.00
2019-04-29T06:32:49.091Z,55.25
2019-04-29T06:35:18.199Z,54.38
2019-04-29T06:37:47.308Z,54.50
2019-04-29T06:40:16.447Z,55.98
2019-04-29T06:42:49.407Z,54.10
2019-04-29T06:45:16.784Z,55.65
2019-04-29T06:47:45.914Z,56.85
2019-04-29T06:50:15.308Z,56.15
2019-04-29T06:52:44.415Z,54.80
2019-04-29T06:55:13.609Z,56.23
2019-04-29T06:57:42.731Z,57.40
2019-04-29T07:00:45.115Z,66.67
2019-04-29T07:03:11.423Z,57.48
2019-04-29T07:05:56.012Z,63.35
2019-04-29T07:08:25.456Z,55.70
2019-04-29T07:11:02.980Z,58.10
2019-04-29T07:13:25.709Z,56.05
2019-04-29T07:15:55.478Z,55.52
2019-04-29T07:18:24.596Z,55.33
2019-04-29T07:20:53.709Z,56.42
2019-04-29T07:26:24.094Z,55.12
2019-04-29T07:28:55.633Z,61.20
2019-04-29T07:31:28.286Z,54.77
2019-04-29T07:33:57.890Z,56.83
2019-04-29T07:36:26.522Z,55.65
2019-04-29T07:39:15.311Z,58.65
2019-04-29T07:41:49.487Z,60.03
2019-04-29T07:44:23.665Z,60.45
2019-04-29T07:46:59.176Z,58.78
2019-04-29T07:49:29.245Z,57.53
2019-04-29T07:51:58.943Z,60.12
2019-04-29T07:57:28.963Z,57.70
2019-04-29T07:59:58.240Z,55.20
2019-04-29T08:02:27.947Z,55.98
2019-04-29T08:05:02.968Z,53.83
2019-04-29T08:07:42.458Z,54.00
2019-04-29T08:10:23.236Z,53.45
2019-04-29T08:12:49.478Z,60.63
2019-04-29T08:15:31.758Z,58.73
2019-04-29T08:18:14.417Z,55.15
2019-04-29T08:20:41.515Z,53.40
2019-04-29T08:23:24.066Z,57.10
2019-04-29T08:26:02.704Z,58.35
2019-04-29T08:28:37.078Z,56.63
2019-04-29T08:31:05.019Z,53.50
2019-04-29T08:33:34.153Z,53.40
2019-04-29T08:36:13.652Z,55.45
2019-04-29T08:38:42.776Z,54.58
2019-04-29T08:41:14.788Z,52.80
2019-04-29T08:43:46.462Z,54.55
2019-04-29T08:46:28.421Z,56.58
2019-04-29T08:49:06.138Z,56.85
2019-04-29T08:51:35.678Z,53.65
2019-04-29T08:54:05.160Z,53.95
2019-04-29T08:56:42.480Z,56.45
2019-04-29T08:59:13.461Z,56.18
2019-04-29T09:01:49.122Z,54.23
2019-04-29T09:04:18.279Z,53.02
2019-04-29T09:06:47.398Z,53.08
2019-04-29T09:09:28.491Z,56.00
2019-04-29T09:11:48.319Z,53.42
2019-04-29T09:14:26.789Z,56.80
2019-04-29T09:17:09.011Z,55.55
2019-04-29T09:19:33.507Z,53.58
2019-04-29T09:22:04.257Z,53.20
2019-04-29T09:24:33.416Z,54.45
2019-04-29T09:27:11.157Z,53.58
2019-04-29T09:29:46.478Z,55.05
2019-04-29T09:32:18.579Z,56.92
2019-04-29T09:35:00.546Z,54.18
2019-04-29T09:37:32.456Z,54.03
2019-04-29T09:40:02.320Z,55.50
2019-04-29T09:42:33.089Z,53.23
2019-04-29T09:45:09.639Z,55.48
2019-04-29T09:47:52.663Z,55.85
2019-04-29T09:50:34.154Z,58.85
2019-04-29T09:53:02.215Z,55.90
2019-04-29T09:55:48.887Z,55.43
2019-04-29T09:58:22.086Z,54.88
2019-04-29T10:00:58.956Z,54.77
2019-04-29T10:03:42.179Z,53.55
2019-04-29T10:06:18.080Z,55.60
2019-04-29T10:08:55.111Z,54.73
2019-04-29T10:14:17.570Z,55.80
2019-04-29T10:16:57.198Z,61.15
2019-04-29T10:19:36.817Z,55.73
2019-04-29T10:22:08.299Z,53.75
2019-04-29T10:24:39.633Z,58.78
2019-04-29T10:27:08.962Z,53.87
2019-04-29T10:29:42.420Z,56.50
2019-04-29T10:32:25.203Z,56.02
2019-04-29T10:34:58.845Z,57.38
2019-04-29T10:37:31.392Z,54.25
2019-04-29T10:40:25.482Z,56.55
2019-04-29T10:43:17.378Z,59.60
2019-04-29T10:46:06.992Z,54.63
2019-04-29T10:48:44.509Z,55.73
2019-04-29T10:51:27.065Z,57.05
2019-04-29T10:53:55.840Z,56.55
2019-04-29T10:56:39.438Z,54.25
2019-04-29T10:59:12.137Z,55.73
2019-04-29T11:02:17.671Z,55.92
2019-04-29T11:04:51.742Z,58.50
2019-04-29T11:07:39.964Z,59.83
2019-04-29T11:10:25.340Z,55.08
2019-04-29T11:12:55.553Z,54.50
2019-04-29T11:15:49.273Z,57.33
2019-04-29T11:18:22.615Z,57.00
2019-04-29T11:21:09.040Z,57.90
2019-04-29T11:23:43.799Z,54.73
2019-04-29T11:26:16.090Z,55.03
2019-04-29T11:28:46.994Z,58.15
2019-04-29T11:31:19.349Z,55.98
2019-04-29T11:34:11.558Z,54.38
2019-04-29T11:36:47.662Z,54.53
2019-04-29T11:39:19.747Z,56.83
2019-04-29T11:41:54.717Z,57.13
2019-04-29T11:44:31.960Z,57.35
2019-04-29T11:47:06.682Z,55.17
2019-04-29T11:49:44.132Z,56.08
2019-04-29T11:52:23.670Z,55.80
2019-04-29T11:55:13.997Z,53.63
2019-04-29T11:57:59.918Z,57.62
2019-04-29T12:00:54.417Z,54.55
2019-04-29T12:03:37.523Z,57.58
2019-04-29T12:06:10.172Z,58.30
2019-04-29T12:08:48.176Z,56.60
2019-04-29T12:11:17.568Z,57.17
2019-04-29T12:13:59.052Z,57.65
2019-04-29T12:16:35.969Z,56.05
2019-04-29T12:19:17.178Z,58.90
2019-04-29T12:21:48.529Z,59.25
2019-04-29T12:24:21.848Z,57.27
2019-04-29T12:26:50.952Z,56.42
2019-04-29T12:29:24.135Z,59.48
2019-04-29T12:32:01.847Z,58.78
2019-04-29T12:34:45.185Z,58.63
2019-04-29T12:37:45.666Z,59.73
2019-04-29T12:40:35.310Z,58.42
2019-04-29T12:43:25.481Z,59.30
2019-04-29T12:45:59.339Z,58.70
2019-04-29T12:48:40.340Z,59.03
2019-04-29T12:51:17.042Z,58.42
2019-04-29T12:53:51.891Z,59.90
2019-04-29T12:56:26.176Z,56.80
2019-04-29T12:58:59.694Z,58.68
2019-04-29T13:01:55.927Z,56.63
2019-04-29T13:04:19.896Z,56.90
2019-04-29T13:07:06.941Z,58.15
2019-04-29T13:09:49.673Z,58.68
2019-04-29T13:12:22.400Z,58.92
2019-04-29T13:15:07.871Z,60.35
2019-04-29T13:17:41.057Z,57.65
2019-04-29T13:20:13.263Z,58.80
2019-04-29T13:22:52.500Z,58.83
2019-04-29T13:25:27.553Z,60.60
2019-04-29T13:28:29.769Z,57.70
2019-04-29T13:31:07.743Z,60.70
2019-04-29T13:33:51.081Z,58.40
2019-04-29T13:36:34.754Z,59.90
2019-04-29T13:39:01.809Z,58.28
2019-04-29T13:41:56.341Z,58.87
2019-04-29T13:44:23.140Z,59.20
2019-04-29T13:47:11.467Z,60.98
2019-04-29T13:49:50.784Z,59.40
2019-04-29T13:52:23.847Z,61.13
2019-04-29T13:54:53.004Z,59.18
2019-04-29T13:57:26.865Z,62.30
2019-04-29T14:00:02.258Z,59.93
2019-04-29T14:02:41.170Z,59.88
2019-04-29T14:05:18.156Z,60.67
2019-04-29T14:10:51.234Z,61.05
2019-04-29T14:13:20.960Z,63.73
2019-04-29T14:15:49.289Z,59.83
2019-04-29T14:18:20.042Z,59.77
2019-04-29T14:20:51.881Z,58.02
2019-04-29T14:23:20.014Z,58.78
2019-04-29T14:25:49.173Z,59.58
2019-04-29T14:28:19.854Z,60.55
2019-04-29T14:30:51.155Z,59.33
2019-04-29T14:33:24.307Z,58.05
2019-04-29T14:36:02.815Z,63.80
2019-04-29T14:38:40.022Z,64.03
2019-04-29T14:41:06.685Z,58.23
2019-04-29T14:43:46.543Z,56.33
2019-04-29T14:46:28.368Z,57.43
2019-04-29T14:49:06.201Z,57.85
2019-04-29T14:51:50.734Z,55.35
2019-04-29T14:54:21.229Z,56.08
2019-04-29T14:57:09.221Z,55.92
2019-04-29T14:59:39.193Z,56.30
2019-04-29T15:02:16.797Z,57.00
2019-04-29T15:04:53.510Z,58.15
2019-04-29T15:07:28.875Z,57.50
2019-04-29T15:09:58.720Z,55.92
2019-04-29T15:12:51.187Z,54.83
2019-04-29T15:15:29.737Z,54.08
2019-04-29T15:18:16.462Z,53.78
2019-04-29T15:20:43.651Z,54.38
2019-04-29T15:23:12.778Z,54.30
2019-04-29T15:25:41.920Z,54.63
2019-04-29T15:28:11.101Z,54.13
2019-04-29T15:30:41.960Z,54.40
2019-04-29T15:33:21.944Z,55.43
2019-04-29T15:35:54.981Z,56.37
2019-04-29T15:38:22.289Z,54.08
2019-04-29T15:40:51.414Z,53.48
2019-04-29T15:43:24.508Z,52.38
2019-04-29T15:45:54.726Z,54.60
2019-04-29T15:48:34.330Z,54.53
2019-04-29T15:51:15.418Z,56.88
2019-04-29T15:53:48.316Z,54.10
2019-04-29T15:56:28.385Z,55.55
2019-04-29T15:58:59.576Z,54.40
2019-04-29T16:01:31.024Z,55.28
2019-04-29T16:04:08.452Z,60.25
2019-04-29T16:06:56.275Z,59.45
2019-04-29T16:09:50.586Z,61.70
2019-04-29T16:12:11.492Z,60.23
2019-04-29T16:14:35.890Z,59.95
2019-04-29T16:17:05.103Z,58.10
2019-04-29T16:19:34.407Z,60.45
2019-04-29T16:22:03.695Z,59.03
2019-04-29T16:24:38.510Z,61.80
2019-04-29T16:29:46.092Z,57.38
2019-04-29T16:32:15.935Z,60.80
2019-04-29T16:34:54.343Z,60.88
2019-04-29T16:37:31.735Z,60.48
2019-04-29T16:40:06.573Z,58.60
2019-04-29T16:42:42.188Z,60.67
2019-04-29T16:45:14.161Z,58.75
2019-04-29T16:47:47.641Z,61.40
2019-04-29T16:50:20.019Z,61.42
2019-04-29T16:52:50.630Z,59.18
2019-04-29T16:55:20.821Z,59.23
2019-04-29T16:57:50.570Z,63.02
2019-04-29T17:00:24.451Z,60.92
2019-04-29T17:02:56.595Z,57.98
2019-04-29T17:05:25.957Z,61.60
2019-04-29T17:10:35.138Z,59.95
2019-04-29T17:13:09.004Z,59.85
2019-04-29T17:15:44.468Z,60.50
2019-04-29T17:18:13.985Z,58.55
2019-04-29T17:23:23.661Z,59.65
2019-04-29T17:25:46.546Z,61.15
2019-04-29T17:28:29.353Z,61.55
2019-04-29T17:31:14.284Z,59.23
2019-04-29T17:33:59.005Z,60.40
2019-04-29T17:35:18.629Z,58.98
2019-04-29T17:36:29.364Z,60.33
2019-04-29T17:39:00.026Z,61.53
2019-04-29T17:41:29.546Z,62.40
2019-04-29T17:44:06.666Z,63.90
2019-04-29T17:46:40.058Z,62.13
2019-04-29T17:49:30.565Z,62.00
2019-04-29T17:54:48.730Z,66.50
2019-04-29T17:57:36.523Z,61.45
2019-04-29T18:00:15.826Z,63.42
2019-04-29T18:03:05.406Z,65.87
2019-04-29T18:05:57.834Z,62.43
2019-04-29T18:08:31.907Z,60.98
2019-04-29T18:11:06.489Z,61.33
2019-04-29T18:13:35.280Z,62.80
2019-04-29T18:16:17.335Z,63.40
2019-04-29T18:19:00.301Z,60.35
2019-04-29T18:21:50.643Z,62.67
2019-04-29T18:24:22.704Z,61.23
2019-04-29T18:26:53.951Z,62.17
2019-04-29T18:29:25.784Z,61.75
2019-04-29T18:32:00.537Z,62.90
2019-04-29T18:34:37.447Z,64.30
2019-04-29T18:37:08.428Z,63.20
2019-04-29T18:39:38.467Z,60.67
2019-04-29T18:42:13.706Z,60.30
2019-04-29T18:44:56.423Z,60.90
2019-04-29T18:47:22.610Z,63.78
2019-04-29T18:49:50.655Z,61.05
2019-04-29T18:52:26.549Z,66.25
2019-04-29T18:54:59.497Z,60.65
2019-04-29T18:57:32.751Z,58.08
2019-04-29T19:00:12.730Z,66.70
2019-04-29T19:02:52.473Z,63.98
2019-04-29T19:05:32.490Z,59.93
2019-04-29T19:08:11.452Z,64.75
2019-04-29T19:10:41.563Z,64.62
2019-04-29T19:13:05.391Z,66.87
2019-04-29T19:15:39.889Z,64.95
2019-04-29T19:18:17.522Z,66.02
2019-04-29T19:20:52.925Z,64.30
2019-04-29T19:23:29.463Z,59.05
2019-04-29T19:26:03.386Z,63.15
2019-04-29T19:28:34.676Z,61.73
2019-04-29T19:31:09.857Z,74.30
2019-04-29T19:33:42.864Z,57.67
2019-04-29T19:36:18.511Z,67.27
2019-04-29T19:38:48.869Z,62.98
2019-04-29T19:41:18.255Z,58.58
2019-04-29T19:43:55.052Z,62.60
2019-04-29T19:46:25.327Z,60.63
2019-04-29T19:49:09.835Z,64.00
2019-04-29T19:51:43.532Z,63.35
2019-04-29T19:54:11.940Z,59.45
2019-04-29T19:56:44.753Z,64.82
2019-04-29T19:59:18.089Z,69.03
2019-04-29T20:02:02.129Z,62.48
2019-04-29T20:04:28.218Z,61.80
2019-04-29T20:07:06.026Z,64.85
2019-04-29T20:09:32.447Z,61.58
2019-04-29T20:12:09.230Z,61.30
2019-04-29T20:14:33.982Z,55.63
2019-04-29T20:17:12.682Z,56.00
2019-04-29T20:20:00.302Z,55.58
2019-04-29T20:22:29.670Z,55.98
2019-04-29T20:25:00.581Z,55.80
2019-04-29T20:27:30.999Z,55.90
2019-04-29T20:30:15.688Z,59.58
2019-04-29T20:32:42.833Z,56.83
2019-04-29T20:35:15.866Z,57.25
2019-04-29T20:37:52.097Z,57.70
2019-04-29T20:40:26.861Z,59.45
2019-04-29T20:43:10.718Z,58.92
2019-04-29T20:45:45.460Z,56.10
2019-04-29T20:48:19.407Z,57.13
2019-04-29T20:50:52.521Z,58.10
2019-04-29T20:53:22.609Z,58.23
2019-04-29T20:55:56.217Z,59.35
2019-04-29T20:58:31.387Z,56.90
2019-04-29T21:01:03.159Z,56.73
2019-04-29T21:03:36.078Z,57.65
2019-04-29T21:06:21.006Z,55.83
2019-04-29T21:08:52.235Z,57.38
2019-04-29T21:11:35.535Z,58.75
2019-04-29T21:14:27.224Z,60.70
2019-04-29T21:16:57.670Z,58.35
2019-04-29T21:19:30.913Z,58.00
2019-04-29T21:22:21.929Z,59.75
2019-04-29T21:24:53.888Z,63.10
2019-04-29T21:27:26.011Z,58.00
2019-04-29T21:29:59.308Z,57.08
2019-04-29T21:32:30.599Z,60.45
2019-04-29T21:35:19.038Z,59.13
2019-04-29T21:38:01.192Z,56.30
2019-04-29T21:40:42.325Z,56.75
2019-04-29T21:43:17.535Z,59.88
2019-04-29T21:45:49.946Z,57.83
2019-04-29T21:48:25.333Z,58.95
2019-04-29T21:50:58.785Z,59.35
2019-04-29T21:53:36.574Z,62.88
2019-04-29T21:56:09.114Z,58.23
2019-04-29T21:58:40.182Z,58.25
2019-04-29T22:01:12.289Z,61.70
2019-04-29T22:03:50.540Z,59.45
2019-04-29T22:06:19.870Z,57.35
2019-04-29T22:08:54.282Z,60.35
2019-04-29T22:11:26.957Z,61.73
2019-04-29T22:14:03.198Z,58.60
2019-04-29T22:16:32.217Z,61.30
2019-04-29T22:19:10.267Z,63.40
2019-04-29T22:21:42.614Z,58.00
2019-04-29T22:24:15.914Z,60.20
2019-04-29T22:26:49.037Z,59.88
2019-04-29T22:29:21.570Z,61.98
2019-04-29T22:31:56.427Z,60.43
2019-04-29T22:34:28.359Z,59.67
2019-04-29T22:37:01.131Z,61.75
2019-04-29T22:39:43.065Z,59.70
2019-04-29T22:42:32.078Z,59.35
2019-04-29T22:45:06.429Z,61.68
2019-04-29T22:47:37.532Z,61.40
2019-04-29T22:50:14.313Z,60.30
2019-04-29T22:52:48.860Z,60.08
2019-04-29T22:55:39.304Z,61.53
2019-04-29T22:58:14.981Z,61.88
2019-04-29T23:00:48.825Z,60.52
2019-04-29T23:03:18.764Z,60.90
2019-04-29T23:08:16.191Z,56.98
2019-04-29T23:10:45.643Z,59.35
2019-04-29T23:13:14.788Z,59.60
2019-04-29T23:15:45.532Z,59.58
2019-04-29T23:18:24.305Z,57.10
2019-04-29T23:20:50.242Z,58.50
2019-04-29T23:23:20.993Z,59.98
2019-04-29T23:25:52.313Z,61.45
2019-04-29T23:28:22.409Z,59.67
2019-04-29T23:30:53.397Z,59.58
2019-04-29T23:33:24.060Z,59.83
2019-04-29T23:35:53.741Z,58.90
2019-04-29T23:38:22.854Z,59.25
2019-04-29T23:40:54.652Z,59.53
2019-04-29T23:43:25.310Z,59.03
2019-04-29T23:45:59.037Z,59.88
2019-04-29T23:48:26.571Z,58.25
2019-04-29T23:50:58.148Z,58.73
2019-04-29T23:53:26.700Z,57.83
2019-04-29T23:56:00.144Z,60.30
2019-04-29T23:58:28.310Z,57.13
